Time;durP1;ratioP1;P1;durP2;ratioP2;P2;SDS_P1;SDS_P2;PMS_P1;PMS_P2;Temp;Humidity;BMP_temperature;BMP_pressure;BME280_temperature;BME280_humidity;BME280_pressure;Samples;Min_cycle;Max_cycle;Signal;HPM_P1;HPM_P2
2022/10/09 00:00:50;;;;;;;17.23;9.08;;;;;;;11.21;72.87;100155.66;1721533;83;21055;-71
2022/10/09 00:03:17;;;;;;;14.73;10.13;;;;;;;11.18;72.90;100151.55;1712709;83;21128;-70
2022/10/09 00:05:45;;;;;;;13.22;8.28;;;;;;;11.15;73.02;100148.02;1726067;83;20893;-72
2022/10/09 00:08:12;;;;;;;10.93;8.90;;;;;;;11.11;73.14;100150.09;1726331;83;20932;-70
2022/10/09 00:10:42;;;;;;;13.95;9.23;;;;;;;11.07;73.28;100144.38;1727901;83;20925;-71
2022/10/09 00:13:10;;;;;;;11.45;8.78;;;;;;;11.04;73.44;100144.84;1728019;82;20950;-72
2022/10/09 00:15:42;;;;;;;14.65;8.25;;;;;;;10.99;73.59;100142.05;1727511;83;21570;-71
2022/10/09 00:18:14;;;;;;;16.90;9.45;;;;;;;10.96;73.69;100139.03;1724834;83;21428;-70
2022/10/09 00:20:43;;;;;;;23.57;10.25;;;;;;;10.93;73.96;100137.10;1729336;83;20913;-71
2022/10/09 00:23:10;;;;;;;16.48;9.13;;;;;;;10.93;74.39;100133.62;1703613;84;20932;-71
2022/10/09 00:25:38;;;;;;;12.25;8.60;;;;;;;10.94;75.55;100123.12;1699791;83;21387;-74
2022/10/09 00:28:05;;;;;;;12.33;8.35;;;;;;;11.00;78.47;100121.34;1727769;83;22025;-71
2022/10/09 00:30:32;;;;;;;9.08;7.37;;;;;;;10.99;77.43;100119.70;1719216;83;21888;-70
2022/10/09 00:32:59;;;;;;;13.43;7.92;;;;;;;10.99;76.63;100115.14;1725065;82;21059;-71
2022/10/09 00:35:25;;;;;;;12.28;8.18;;;;;;;10.97;76.22;100119.97;1735262;82;20979;-69
2022/10/09 00:37:52;;;;;;;10.55;7.78;;;;;;;10.94;76.03;100112.36;1735668;82;21516;-70
2022/10/09 00:40:20;;;;;;;7.70;6.92;;;;;;;10.90;76.04;100112.03;1735705;82;21726;-70
2022/10/09 00:42:47;;;;;;;12.30;6.92;;;;;;;10.85;75.87;100111.12;1735660;82;20889;-70
2022/10/09 00:45:19;;;;;;;10.48;7.00;;;;;;;10.83;75.71;100103.30;1728437;82;20953;-70
2022/10/09 00:47:55;;;;;;;8.43;6.65;;;;;;;10.84;75.81;100102.22;1727834;83;21478;-71
2022/10/09 00:50:26;;;;;;;14.25;9.13;;;;;;;10.85;75.78;100099.00;1727985;83;20974;-71
2022/10/09 00:52:58;;;;;;;10.90;8.58;;;;;;;10.86;75.60;100100.64;1727835;83;21207;-72
2022/10/09 00:55:26;;;;;;;7.70;6.90;;;;;;;10.86;75.43;100097.95;1728249;83;20989;-72
2022/10/09 00:57:54;;;;;;;8.88;6.85;;;;;;;10.85;75.56;100093.09;1726832;83;20874;-71
2022/10/09 01:00:22;;;;;;;13.83;9.00;;;;;;;10.90;75.51;100092.38;1726146;83;20948;-71
2022/10/09 01:02:49;;;;;;;11.78;7.10;;;;;;;10.91;75.38;100096.17;1727756;83;21880;-73
2022/10/09 01:05:16;;;;;;;13.13;8.25;;;;;;;10.94;75.10;100093.52;1727867;83;21217;-71
2022/10/09 01:07:58;;;;;;;10.15;7.70;;;;;;;10.98;74.67;100087.97;1727989;83;20909;-71
2022/10/09 01:10:36;;;;;;;10.68;7.50;;;;;;;11.00;74.47;100091.20;1727738;83;20975;-72
2022/10/09 01:13:11;;;;;;;14.03;9.08;;;;;;;10.97;74.44;100089.02;1719780;83;21592;-72
2022/10/09 01:15:52;;;;;;;11.10;7.65;;;;;;;10.96;74.50;100084.69;1674764;84;21021;-70
2022/10/09 01:18:30;;;;;;;11.80;9.30;;;;;;;11.00;74.57;100084.48;1689108;84;21781;-72
2022/10/09 01:21:08;;;;;;;18.77;8.90;;;;;;;11.07;74.32;100083.81;1698494;84;21478;-70
2022/10/09 01:23:53;;;;;;;14.13;9.63;;;;;;;11.11;73.99;100082.26;1707987;83;20995;-72
2022/10/09 01:26:34;;;;;;;9.13;7.15;;;;;;;11.09;74.01;100083.02;1759752;81;21438;-72
2022/10/09 01:29:05;;;;;;;12.40;7.03;;;;;;;11.12;73.91;100070.97;1739306;81;21459;-71
2022/10/09 01:31:36;;;;;;;10.35;7.22;;;;;;;11.18;73.61;100074.00;1699675;84;21304;-70
2022/10/09 01:34:03;;;;;;;10.82;7.08;;;;;;;11.19;73.35;100077.81;1707000;82;20913;-73
2022/10/09 01:36:31;;;;;;;10.90;7.55;;;;;;;11.22;73.21;100077.31;1730821;81;20911;-72
2022/10/09 01:38:58;;;;;;;10.35;6.45;;;;;;;11.23;73.10;100078.13;1712476;83;20939;-74
2022/10/09 01:41:25;;;;;;;11.15;8.28;;;;;;;11.26;73.05;100079.00;1711780;83;21015;-72
2022/10/09 01:43:52;;;;;;;9.35;7.35;;;;;;;11.27;72.98;100076.05;1711851;83;21234;-74
2022/10/09 01:46:26;;;;;;;10.93;7.12;;;;;;;11.29;72.77;100077.16;1712482;83;20968;-73
2022/10/09 01:49:19;;;;;;;11.50;8.58;;;;;;;11.28;72.76;100079.56;1726795;82;20898;-71
2022/10/09 01:51:59;;;;;;;14.07;8.23;;;;;;;11.28;72.65;100084.95;1728149;83;20926;-74
2022/10/09 01:54:48;;;;;;;17.50;9.13;;;;;;;11.27;72.54;100081.44;1727762;83;20937;-75
2022/10/09 01:57:17;;;;;;;15.38;9.40;;;;;;;11.26;72.46;100079.00;1726908;83;21079;-73
2022/10/09 01:59:44;;;;;;;13.80;9.13;;;;;;;11.29;72.50;100079.33;1726488;83;20942;-72
2022/10/09 02:02:11;;;;;;;15.53;9.25;;;;;;;11.35;72.34;100077.01;1727990;83;20902;-71
2022/10/09 02:04:39;;;;;;;16.77;8.90;;;;;;;11.37;72.19;100077.56;1727668;83;20981;-71
2022/10/09 02:07:06;;;;;;;11.63;9.95;;;;;;;11.36;72.02;100082.69;1727686;83;20948;-73
2022/10/09 02:09:34;;;;;;;16.37;10.05;;;;;;;11.35;71.93;100081.58;1726864;83;20896;-73
2022/10/09 02:12:05;;;;;;;13.38;10.08;;;;;;;11.29;71.87;100075.81;1727713;83;20876;-75
2022/10/09 02:14:34;;;;;;;12.78;10.32;;;;;;;11.23;71.83;100073.56;1702727;83;20890;-74
2022/10/09 02:17:08;;;;;;;12.65;11.10;;;;;;;11.14;71.89;100071.52;1727693;83;21458;-74
2022/10/09 02:19:52;;;;;;;19.85;11.18;;;;;;;11.06;72.11;100067.89;1727582;83;20929;-73
2022/10/09 02:22:24;;;;;;;10.98;9.83;;;;;;;10.97;72.35;100068.01;1727947;83;21121;-73
2022/10/09 02:24:51;;;;;;;14.50;11.03;;;;;;;10.86;72.53;100067.83;1718040;83;20839;-74
2022/10/09 02:27:18;;;;;;;18.65;12.33;;;;;;;10.70;72.86;100066.44;1679829;83;20968;-73
2022/10/09 02:29:46;;;;;;;18.10;14.93;;;;;;;10.48;73.32;100072.52;1727477;83;20981;-72
2022/10/09 02:32:13;;;;;;;25.65;14.40;;;;;;;10.37;73.79;100076.57;1727961;83;20882;-72
2022/10/09 02:34:39;;;;;;;15.95;11.40;;;;;;;10.27;74.18;100079.88;1727790;83;21736;-72
2022/10/09 02:37:06;;;;;;;14.95;9.48;;;;;;;10.15;74.87;100071.01;1727616;83;20982;-73
2022/10/09 02:39:32;;;;;;;13.95;10.40;;;;;;;10.01;76.94;100075.02;1727217;83;20911;-73
2022/10/09 02:41:59;;;;;;;14.60;10.82;;;;;;;9.82;78.10;100074.87;1727103;83;20945;-72
2022/10/09 02:44:26;;;;;;;11.73;10.18;;;;;;;9.71;79.41;100073.00;1727607;83;20969;-73
2022/10/09 02:46:52;;;;;;;16.25;12.43;;;;;;;9.56;79.95;100070.26;1702857;83;21006;-75
2022/10/09 02:49:19;;;;;;;14.70;12.05;;;;;;;9.50;80.06;100069.02;1724206;83;20919;-74
2022/10/09 02:51:45;;;;;;;15.80;13.00;;;;;;;9.52;80.23;100064.25;1727652;83;20931;-73
2022/10/09 02:54:12;;;;;;;18.37;13.40;;;;;;;9.52;80.21;100064.25;1726407;83;20905;-72
2022/10/09 02:56:39;;;;;;;15.20;12.15;;;;;;;9.51;80.29;100067.45;1726843;83;20942;-72
2022/10/09 02:59:06;;;;;;;15.93;11.25;;;;;;;9.48;80.36;100065.25;1728010;83;21274;-74
2022/10/09 03:01:33;;;;;;;19.90;13.60;;;;;;;9.44;81.37;100067.29;1727613;83;20900;-73
2022/10/09 03:04:00;;;;;;;14.25;11.65;;;;;;;9.34;81.68;100063.84;1727971;82;20875;-74
2022/10/09 03:06:27;;;;;;;20.32;12.78;;;;;;;9.21;83.49;100057.33;1727385;83;20906;-73
2022/10/09 03:08:54;;;;;;;17.37;13.30;;;;;;;9.13;83.76;100053.66;1726653;83;20969;-78
2022/10/09 03:11:21;;;;;;;18.30;12.98;;;;;;;9.05;84.30;100052.14;1726988;83;21474;-77
2022/10/09 03:13:48;;;;;;;15.35;12.05;;;;;;;8.97;85.12;100059.72;1728053;83;20929;-77
2022/10/09 03:16:21;;;;;;;13.50;11.10;;;;;;;8.91;85.28;100052.06;1727731;82;20969;-77
2022/10/09 03:18:50;;;;;;;21.12;12.35;;;;;;;8.88;86.10;100050.34;1727867;83;20886;-74
2022/10/09 03:21:22;;;;;;;13.53;10.43;;;;;;;8.86;86.40;100047.09;1727773;83;20921;-75
2022/10/09 03:23:49;;;;;;;23.02;13.13;;;;;;;8.83;86.99;100047.00;1727291;83;21890;-75
2022/10/09 03:26:19;;;;;;;19.12;11.95;;;;;;;8.79;87.45;100050.37;1727096;83;20993;-74
2022/10/09 03:28:47;;;;;;;14.85;12.82;;;;;;;8.74;87.64;100040.34;1727535;83;21485;-75
2022/10/09 03:31:15;;;;;;;20.88;12.20;;;;;;;8.70;88.32;100039.16;1727880;83;20909;-75
2022/10/09 03:33:42;;;;;;;18.65;11.50;;;;;;;8.71;88.36;100039.47;1727581;83;20957;-75
2022/10/09 03:36:09;;;;;;;18.27;11.83;;;;;;;8.74;88.38;100037.66;1728028;83;21181;-78
2022/10/09 03:38:36;;;;;;;15.18;11.97;;;;;;;8.75;88.48;100037.95;1719150;83;20978;-77
2022/10/09 03:41:03;;;;;;;20.20;12.05;;;;;;;8.77;88.46;100038.56;1726837;83;20906;-76
2022/10/09 03:43:30;;;;;;;15.53;11.83;;;;;;;8.80;88.28;100035.92;1726473;83;20968;-77
2022/10/09 03:45:56;;;;;;;15.80;10.72;;;;;;;8.80;88.23;100039.43;1719626;82;20940;-77
2022/10/09 03:48:23;;;;;;;20.72;14.28;;;;;;;8.75;88.52;100042.80;1726729;82;22053;-76
2022/10/09 03:50:49;;;;;;;14.98;13.20;;;;;;;8.74;88.48;100034.97;1726851;81;20929;-76
2022/10/09 03:53:16;;;;;;;16.57;11.40;;;;;;;8.75;88.46;100033.41;1724111;83;20969;-76
2022/10/09 03:55:43;;;;;;;15.78;11.45;;;;;;;8.77;88.21;100025.67;1724103;83;20903;-75
2022/10/09 03:58:10;;;;;;;16.32;13.05;;;;;;;8.78;88.15;100024.63;1724755;82;20915;-76
2022/10/09 04:00:36;;;;;;;17.95;12.10;;;;;;;8.77;88.12;100029.17;1724591;83;21197;-76
2022/10/09 04:03:03;;;;;;;16.35;12.28;;;;;;;8.81;87.99;100022.30;1724401;83;20911;-75
2022/10/09 04:05:34;;;;;;;15.93;12.47;;;;;;;8.82;88.03;100027.14;1724862;83;20913;-75
2022/10/09 04:08:02;;;;;;;14.90;11.75;;;;;;;8.78;88.28;100020.05;1724570;83;21455;-76
2022/10/09 04:10:29;;;;;;;20.17;12.05;;;;;;;8.80;88.25;100031.38;1724275;83;20973;-75
2022/10/09 04:12:56;;;;;;;15.83;11.57;;;;;;;8.83;88.49;100034.11;1724445;83;21340;-76
2022/10/09 04:15:24;;;;;;;15.23;11.70;;;;;;;8.80;88.96;100034.06;1723987;83;20953;-75
2022/10/09 04:17:51;;;;;;;15.55;12.75;;;;;;;8.76;89.38;100035.58;1724745;83;21469;-75
2022/10/09 04:20:19;;;;;;;13.88;10.72;;;;;;;8.71;89.70;100032.24;1724711;83;21478;-75
2022/10/09 04:22:47;;;;;;;18.62;12.05;;;;;;;8.70;89.65;100026.58;1721111;83;20994;-75
2022/10/09 04:25:14;;;;;;;21.02;12.53;;;;;;;8.70;89.79;100028.44;1724927;83;21175;-76
2022/10/09 04:27:42;;;;;;;17.80;13.60;;;;;;;8.70;89.77;100025.23;1698349;83;21472;-75
2022/10/09 04:30:09;;;;;;;18.95;12.25;;;;;;;8.77;89.58;100027.83;1723367;83;20989;-76
2022/10/09 04:32:37;;;;;;;11.65;10.23;;;;;;;8.87;89.33;100026.75;1675188;83;20970;-75
2022/10/09 04:35:05;;;;;;;16.02;13.72;;;;;;;8.96;88.89;100026.70;1724785;83;20911;-74
2022/10/09 04:37:31;;;;;;;22.62;12.15;;;;;;;8.97;88.35;100031.00;1724700;83;21041;-74
2022/10/09 04:39:58;;;;;;;19.95;12.10;;;;;;;8.92;88.35;100030.08;1724778;83;20907;-74
2022/10/09 04:42:25;;;;;;;19.25;12.40;;;;;;;8.86;88.70;100033.16;1724665;83;20935;-74
2022/10/09 04:44:51;;;;;;;18.82;11.78;;;;;;;8.81;89.13;100030.34;1723431;83;20913;-75
2022/10/09 04:47:19;;;;;;;15.83;12.73;;;;;;;8.78;89.30;100033.46;1724659;83;20937;-76
2022/10/09 04:49:46;;;;;;;24.12;13.80;;;;;;;8.81;89.34;100029.00;1724505;83;21114;-75
2022/10/09 04:52:14;;;;;;;14.68;12.60;;;;;;;8.81;89.71;100023.64;1726717;83;20882;-74
2022/10/09 04:54:42;;;;;;;14.47;11.35;;;;;;;8.83;89.75;100031.43;1728341;83;21471;-75
2022/10/09 04:57:10;;;;;;;15.75;12.03;;;;;;;8.82;89.73;100033.33;1727940;83;20918;-74
2022/10/09 04:59:37;;;;;;;21.27;13.48;;;;;;;8.86;89.76;100038.52;1717049;83;21064;-74
2022/10/09 05:02:03;;;;;;;20.55;12.05;;;;;;;8.87;89.77;100035.31;1708577;83;21210;-74
2022/10/09 05:04:30;;;;;;;23.73;12.53;;;;;;;8.88;89.78;100035.06;1727460;83;20913;-75
2022/10/09 05:06:57;;;;;;;18.02;12.58;;;;;;;8.91;89.73;100035.96;1727427;83;20987;-75
2022/10/09 05:09:23;;;;;;;24.35;14.25;;;;;;;8.99;89.60;100037.48;1701234;83;20894;-74
2022/10/09 05:11:50;;;;;;;16.23;10.72;;;;;;;9.07;89.42;100044.66;1727795;83;20957;-74
2022/10/09 05:14:18;;;;;;;17.05;12.80;;;;;;;9.16;89.16;100039.24;1726756;83;21066;-74
2022/10/09 05:16:44;;;;;;;16.97;11.43;;;;;;;9.22;88.77;100036.69;1727745;83;20926;-76
2022/10/09 05:19:12;;;;;;;16.40;10.48;;;;;;;9.30;88.55;100037.70;1727866;83;20965;-76
2022/10/09 05:21:41;;;;;;;13.25;10.23;;;;;;;9.39;88.19;100035.78;1727773;83;21534;-74
2022/10/09 05:24:07;;;;;;;17.92;13.15;;;;;;;9.49;87.76;100037.88;1727631;83;20933;-76
2022/10/09 05:26:34;;;;;;;13.18;10.90;;;;;;;9.54;86.93;100034.76;1727931;83;21150;-76
2022/10/09 05:29:01;;;;;;;16.05;12.70;;;;;;;9.58;86.69;100042.66;1727925;83;20909;-79
2022/10/09 05:31:28;;;;;;;20.27;11.08;;;;;;;9.56;86.39;100041.24;1704003;83;21534;-75
2022/10/09 05:33:57;;;;;;;18.85;11.00;;;;;;;9.59;86.31;100040.23;1729456;83;20903;-76
2022/10/09 05:36:24;;;;;;;14.18;12.50;;;;;;;9.63;86.29;100045.98;1729533;83;21510;-76
2022/10/09 05:38:52;;;;;;;25.27;13.95;;;;;;;9.67;86.17;100043.63;1716219;83;21006;-75
2022/10/09 05:41:18;;;;;;;16.80;12.53;;;;;;;9.69;86.19;100051.73;1699223;84;20968;-75
2022/10/09 05:43:46;;;;;;;15.72;12.30;;;;;;;9.71;86.22;100046.95;1683987;83;20921;-74
2022/10/09 05:46:31;;;;;;;15.53;13.55;;;;;;;9.76;86.16;100038.19;1731300;82;21416;-74
2022/10/09 05:49:04;;;;;;;17.70;12.05;;;;;;;9.80;86.15;100040.17;1712645;83;21058;-75
2022/10/09 05:51:34;;;;;;;20.55;11.70;;;;;;;9.89;86.12;100042.78;1728387;83;21126;-76
2022/10/09 05:54:00;;;;;;;20.27;12.35;;;;;;;9.98;85.86;100048.08;1727746;83;20941;-76
2022/10/09 05:56:30;;;;;;;18.40;10.35;;;;;;;10.08;85.52;100047.47;1728145;83;21481;-73
2022/10/09 05:59:06;;;;;;;10.65;9.28;;;;;;;10.16;85.09;100047.14;1730099;81;20964;-74
2022/10/09 06:01:36;;;;;;;15.13;11.08;;;;;;;10.25;84.64;100043.55;1712070;83;20933;-74
2022/10/09 06:04:05;;;;;;;13.00;9.35;;;;;;;10.34;84.30;100051.52;1711320;83;21512;-75
2022/10/09 06:06:32;;;;;;;13.75;11.60;;;;;;;10.42;83.70;100054.64;1728042;83;20961;-75
2022/10/09 06:09:00;;;;;;;15.40;11.70;;;;;;;10.50;83.36;100060.18;1702906;83;20989;-79
2022/10/09 06:11:30;;;;;;;16.80;11.15;;;;;;;10.59;83.11;100055.22;1727994;83;20941;-75
2022/10/09 06:13:59;;;;;;;18.07;13.98;;;;;;;10.66;82.74;100054.01;1727718;83;20901;-75
2022/10/09 06:16:28;;;;;;;18.90;12.50;;;;;;;10.72;82.41;100054.39;1727745;83;21259;-75
2022/10/09 06:18:56;;;;;;;16.00;13.78;;;;;;;10.79;82.15;100056.95;1726847;83;20932;-74
2022/10/09 06:21:25;;;;;;;15.80;10.68;;;;;;;10.82;81.81;100055.92;1727732;83;20904;-75
2022/10/09 06:23:54;;;;;;;15.75;11.45;;;;;;;10.84;81.23;100059.17;1723496;83;20885;-76
2022/10/09 06:26:22;;;;;;;13.03;10.53;;;;;;;10.87;81.21;100063.27;1727629;83;20925;-76
2022/10/09 06:28:49;;;;;;;17.95;12.05;;;;;;;10.91;80.92;100063.06;1727224;83;21397;-76
2022/10/09 06:31:19;;;;;;;18.35;12.65;;;;;;;10.95;80.97;100064.20;1727692;83;20929;-76
2022/10/09 06:33:47;;;;;;;15.28;11.15;;;;;;;11.01;80.94;100069.16;1727883;83;21049;-78
2022/10/09 06:36:16;;;;;;;14.93;10.55;;;;;;;11.06;80.77;100062.51;1702884;83;20949;-74
2022/10/09 06:38:43;;;;;;;13.50;11.55;;;;;;;11.11;80.55;100062.59;1725762;83;20907;-73
2022/10/09 06:41:16;;;;;;;16.27;11.33;;;;;;;11.15;80.41;100059.17;1727905;83;21093;-75
2022/10/09 06:43:44;;;;;;;17.75;11.95;;;;;;;11.19;80.31;100067.04;1726139;83;20875;-76
2022/10/09 06:46:11;;;;;;;15.80;11.35;;;;;;;11.22;79.90;100072.48;1702915;83;20910;-77
2022/10/09 06:48:39;;;;;;;12.50;9.58;;;;;;;11.25;79.78;100070.64;1730870;82;20987;-77
2022/10/09 06:51:10;;;;;;;17.25;11.33;;;;;;;11.27;79.38;100064.48;1712423;83;21521;-77
2022/10/09 06:53:38;;;;;;;12.58;10.35;;;;;;;11.26;79.14;100070.92;1705311;84;21541;-75
2022/10/09 06:56:06;;;;;;;16.27;11.97;;;;;;;11.31;79.36;100071.02;1707281;84;20976;-79
2022/10/09 06:58:32;;;;;;;14.33;11.10;;;;;;;11.35;79.18;100070.27;1710582;82;20899;-76
2022/10/09 07:01:14;;;;;;;15.35;11.57;;;;;;;11.44;79.37;100077.41;1736771;82;20923;-75
2022/10/09 07:03:43;;;;;;;17.05;11.50;;;;;;;11.54;80.34;100070.01;1702007;84;21027;-76
2022/10/09 07:06:14;;;;;;;15.28;10.82;;;;;;;11.63;80.50;100067.17;1727796;82;21082;-75
2022/10/09 07:08:42;;;;;;;15.30;12.30;;;;;;;11.72;81.68;100069.23;1762584;81;20919;-75
2022/10/09 07:11:11;;;;;;;21.93;12.37;;;;;;;11.84;81.11;100060.23;1762705;79;20967;-74
2022/10/09 07:13:38;;;;;;;17.75;11.10;;;;;;;11.96;80.13;100062.27;1762732;81;21449;-75
2022/10/09 07:16:07;;;;;;;12.80;10.53;;;;;;;12.08;79.41;100050.86;1754924;80;20932;-75
2022/10/09 07:18:35;;;;;;;17.82;12.07;;;;;;;12.21;78.91;100061.25;1750583;81;21297;-73
2022/10/09 07:21:04;;;;;;;17.27;11.90;;;;;;;12.31;78.46;100053.28;1764110;81;20943;-75
2022/10/09 07:23:33;;;;;;;16.75;12.88;;;;;;;12.40;78.03;100059.86;1764301;81;20869;-75
2022/10/09 07:25:59;;;;;;;15.83;12.10;;;;;;;12.50;77.77;100064.02;1737080;81;20975;-79
2022/10/09 07:28:27;;;;;;;15.58;12.20;;;;;;;12.56;77.29;100064.37;1763169;81;21458;-76
2022/10/09 07:30:54;;;;;;;22.22;17.87;;;;;;;12.65;77.20;100056.09;1763051;80;21478;-73
2022/10/09 07:33:23;;;;;;;16.55;12.23;;;;;;;12.73;76.87;100052.64;1762885;81;20906;-75
2022/10/09 07:35:55;;;;;;;14.73;11.95;;;;;;;12.78;76.46;100052.16;1741101;81;20906;-74
2022/10/09 07:38:23;;;;;;;14.43;11.30;;;;;;;12.85;76.08;100048.73;1762213;81;21474;-73
2022/10/09 07:40:52;;;;;;;15.23;11.12;;;;;;;12.91;75.84;100047.69;1761827;81;21691;-73
2022/10/09 07:43:18;;;;;;;16.45;12.35;;;;;;;12.97;75.54;100041.27;1762498;81;21089;-73
2022/10/09 07:45:45;;;;;;;18.32;13.68;;;;;;;13.05;75.31;100040.80;1762535;81;20943;-77
2022/10/09 07:48:12;;;;;;;14.28;11.97;;;;;;;13.15;74.89;100041.45;1762889;81;20861;-74
2022/10/09 07:50:39;;;;;;;19.98;11.80;;;;;;;13.26;74.69;100037.77;1762633;81;20916;-73
2022/10/09 07:53:07;;;;;;;15.83;11.22;;;;;;;13.38;73.69;100038.38;1792569;79;20880;-75
2022/10/09 07:55:35;;;;;;;18.12;11.25;;;;;;;13.47;72.86;100044.13;1764066;81;21776;-76
2022/10/09 07:58:02;;;;;;;17.73;11.48;;;;;;;13.54;72.37;100036.06;1740785;81;20920;-75
2022/10/09 08:00:29;;;;;;;14.13;11.63;;;;;;;13.59;71.67;100032.58;1763877;81;20915;-72
2022/10/09 08:02:57;;;;;;;19.67;11.68;;;;;;;13.65;71.70;100040.19;1764799;81;20907;-71
2022/10/09 08:05:23;;;;;;;16.65;13.03;;;;;;;13.71;71.68;100036.44;1765038;81;20956;-70
2022/10/09 08:07:50;;;;;;;25.37;12.55;;;;;;;13.80;71.82;100037.04;1764765;81;21097;-74
2022/10/09 08:10:18;;;;;;;18.52;11.55;;;;;;;13.89;71.69;100035.99;1740669;81;20963;-73
2022/10/09 08:12:44;;;;;;;18.57;12.82;;;;;;;13.97;71.13;100037.66;1764747;79;20944;-74
2022/10/09 08:15:13;;;;;;;17.62;11.65;;;;;;;14.04;70.48;100033.37;1764703;81;20950;-72
2022/10/09 08:17:40;;;;;;;15.78;11.08;;;;;;;14.12;70.28;100030.67;1764158;81;20919;-73
2022/10/09 08:20:07;;;;;;;17.77;11.70;;;;;;;14.20;69.90;100028.80;1761737;80;21145;-73
2022/10/09 08:22:34;;;;;;;19.23;11.00;;;;;;;14.26;69.62;100024.52;1740819;81;20852;-73
2022/10/09 08:25:00;;;;;;;16.67;10.20;;;;;;;14.34;69.33;100023.17;1764805;80;20924;-70
2022/10/09 08:27:27;;;;;;;16.57;11.30;;;;;;;14.40;69.22;100016.73;1764808;81;20892;-71
2022/10/09 08:29:54;;;;;;;13.18;10.00;;;;;;;14.49;69.03;100023.25;1763579;81;20908;-72
2022/10/09 08:32:20;;;;;;;18.75;11.73;;;;;;;14.56;69.00;100016.23;1764326;81;21696;-72
2022/10/09 08:34:47;;;;;;;22.45;11.33;;;;;;;14.65;68.92;100020.04;1733777;81;20940;-72
2022/10/09 08:37:13;;;;;;;17.85;10.58;;;;;;;14.73;68.71;100017.61;1763282;80;20873;-70
2022/10/09 08:39:41;;;;;;;16.77;10.35;;;;;;;14.82;68.36;100017.34;1762267;81;20916;-73
2022/10/09 08:42:22;;;;;;;16.62;10.40;;;;;;;14.92;67.34;100015.72;1736901;81;20991;-72
2022/10/09 08:44:49;;;;;;;18.57;9.20;;;;;;;15.00;67.15;100024.69;1736446;81;20976;-71
2022/10/09 08:47:39;;;;;;;27.27;10.50;;;;;;;15.09;66.10;100025.23;1764485;81;20921;-74
2022/10/09 08:50:18;;;;;;;15.08;9.45;;;;;;;15.18;65.59;100019.53;1762550;81;20858;-73
2022/10/09 08:53:14;;;;;;;18.30;9.45;;;;;;;15.30;65.64;100009.75;1761184;79;21837;-72
2022/10/09 08:55:48;;;;;;;16.37;10.15;;;;;;;15.41;65.21;100010.55;1755832;81;20977;-72
2022/10/09 08:58:18;;;;;;;23.62;9.93;;;;;;;15.55;64.04;100005.67;1731048;81;21734;-73
2022/10/09 09:00:54;;;;;;;14.98;8.43;;;;;;;15.66;63.21;100012.70;1754662;81;20964;-72
2022/10/09 09:03:47;;;;;;;23.30;8.43;;;;;;;15.76;60.75;99997.49;1755124;81;21832;-75
2022/10/09 09:06:29;;;;;;;20.32;9.03;;;;;;;15.82;59.86;99989.07;1754321;81;20936;-75
2022/10/09 09:09:21;;;;;;;16.35;7.40;;;;;;;15.93;60.00;99974.91;1738124;81;20921;-74
2022/10/09 09:12:19;;;;;;;15.00;6.65;;;;;;;16.07;59.62;99978.63;1726221;83;21247;-75
2022/10/09 09:15:08;;;;;;;11.10;7.28;;;;;;;16.17;58.65;99978.59;1709442;83;20904;-73
2022/10/09 09:17:43;;;;;;;17.17;8.65;;;;;;;16.30;58.47;99977.18;1738349;81;20857;-79
2022/10/09 09:20:18;;;;;;;14.07;8.15;;;;;;;16.43;58.29;99979.27;1755675;81;20981;-79
2022/10/09 09:22:47;;;;;;;12.63;6.95;;;;;;;16.54;57.19;99980.83;1756029;81;20885;-79
2022/10/09 09:25:27;;;;;;;20.85;8.90;;;;;;;16.66;57.34;99983.21;1753937;81;21062;-82
2022/10/09 09:27:58;;;;;;;8.70;6.85;;;;;;;16.78;57.10;99989.11;1755701;81;20959;-79
2022/10/09 09:30:31;;;;;;;8.98;6.78;;;;;;;16.89;55.76;99989.27;1710589;81;20995;-81
2022/10/09 09:33:35;;;;;;;7.75;4.55;;;;;;;16.98;55.44;99980.77;1662222;85;20933;-82
2022/10/09 09:36:19;;;;;;;9.68;4.50;;;;;;;17.08;55.34;99984.77;1704638;82;25665;-79
2022/10/09 09:38:45;;;;;;;14.33;5.22;;;;;;;17.15;54.33;99985.80;1720325;83;21840;-69
2022/10/09 09:41:12;;;;;;;9.68;5.05;;;;;;;17.15;53.02;99979.01;1730518;81;21396;-68
2022/10/09 09:43:38;;;;;;;7.90;4.30;;;;;;;17.18;53.61;99981.96;1716084;83;21528;-70
2022/10/09 09:46:11;;;;;;;8.48;4.95;;;;;;;17.23;53.33;99981.91;1724815;82;20898;-71
2022/10/09 09:48:40;;;;;;;7.67;4.43;;;;;;;17.30;53.21;99981.05;1725084;83;21458;-70
2022/10/09 09:51:16;;;;;;;6.28;4.37;;;;;;;17.36;52.43;99979.88;1724811;82;21306;-70
2022/10/09 09:53:52;;;;;;;8.95;3.80;;;;;;;17.43;52.48;99988.52;1724381;82;20985;-70
2022/10/09 09:56:18;;;;;;;6.15;4.15;;;;;;;17.52;51.97;99991.95;1721140;82;21457;-69
2022/10/09 09:58:52;;;;;;;12.30;4.70;;;;;;;17.58;51.71;99986.73;1724838;83;20900;-73
2022/10/09 10:01:27;;;;;;;10.58;4.67;;;;;;;17.63;51.82;99986.16;1725049;83;20907;-70
2022/10/09 10:03:56;;;;;;;9.45;5.50;;;;;;;17.71;51.53;99982.80;1723243;82;21755;-68
2022/10/09 10:06:31;;;;;;;4.78;4.05;;;;;;;17.76;50.54;99980.57;1724677;83;21451;-68
2022/10/09 10:09:04;;;;;;;9.95;4.60;;;;;;;17.80;49.91;99976.98;1724088;83;20968;-68
2022/10/09 10:11:34;;;;;;;7.15;5.58;;;;;;;17.85;49.87;99974.75;1723216;83;20917;-74
2022/10/09 10:14:07;;;;;;;7.87;4.40;;;;;;;17.93;49.85;99976.03;1723208;83;20952;-78
2022/10/09 10:16:36;;;;;;;9.45;6.58;;;;;;;18.01;49.48;99977.55;1723915;83;21370;-79
2022/10/09 10:19:05;;;;;;;9.55;5.78;;;;;;;18.07;49.11;99977.75;1697683;83;20942;-77
2022/10/09 10:21:47;;;;;;;4.85;3.40;;;;;;;18.14;48.65;99976.02;1724868;83;21061;-78
2022/10/09 10:24:18;;;;;;;8.05;4.22;;;;;;;18.18;47.50;99981.13;1724687;83;20949;-78
2022/10/09 10:26:56;;;;;;;5.08;3.22;;;;;;;18.19;47.65;99967.77;1722581;83;21011;-79
2022/10/09 10:29:40;;;;;;;10.50;3.50;;;;;;;18.25;47.90;99963.34;1724538;83;21883;-79
2022/10/09 10:32:22;;;;;;;4.12;3.60;;;;;;;18.37;47.13;99965.61;1724748;83;20930;-78
2022/10/09 10:35:05;;;;;;;5.70;4.10;;;;;;;18.47;46.30;99961.38;1701750;83;20953;-81
2022/10/09 10:38:05;;;;;;;5.87;4.28;;;;;;;18.56;46.15;99967.02;1724127;83;20969;-75
2022/10/09 10:40:55;;;;;;;4.78;4.17;;;;;;;18.67;46.44;99960.30;1703794;83;20966;-77
2022/10/09 10:43:42;;;;;;;4.65;4.00;;;;;;;18.75;46.52;99967.81;1720429;83;21264;-72
2022/10/09 10:46:30;;;;;;;6.05;4.00;;;;;;;18.85;46.14;99962.17;1722747;83;20930;-75
2022/10/09 10:48:58;;;;;;;11.78;5.28;;;;;;;18.98;45.93;99965.52;1664370;84;20992;-73
2022/10/09 10:51:51;;;;;;;10.25;4.50;;;;;;;19.08;45.95;99958.53;1681733;85;21905;-74
2022/10/09 10:54:35;;;;;;;5.67;3.90;;;;;;;19.10;45.80;99954.13;1701502;83;20946;-72
2022/10/09 10:57:19;;;;;;;10.05;5.45;;;;;;;19.14;46.09;99952.41;1732380;82;21844;-72
2022/10/09 11:00:05;;;;;;;9.93;5.10;;;;;;;19.12;46.63;99947.27;1736856;82;20914;-73
2022/10/09 11:02:55;;;;;;;6.87;5.37;;;;;;;19.14;46.29;99938.77;1736547;82;20902;-72
2022/10/09 11:05:29;;;;;;;11.05;5.17;;;;;;;19.13;46.75;99936.62;1736389;82;21009;-73
2022/10/09 11:08:34;;;;;;;6.30;4.78;;;;;;;19.23;46.70;99935.64;1736436;82;20926;-75
2022/10/09 11:11:11;;;;;;;10.25;5.35;;;;;;;19.35;46.88;99929.67;1735852;82;21219;-74
2022/10/09 11:14:14;;;;;;;9.65;5.83;;;;;;;19.44;46.85;99931.42;1715629;82;21087;-71
2022/10/09 11:17:21;;;;;;;10.53;5.92;;;;;;;19.45;46.68;99933.05;1736271;82;20962;-71
2022/10/09 11:20:22;;;;;;;12.13;6.50;;;;;;;19.50;46.70;99933.51;1736557;82;20973;-71
2022/10/09 11:23:03;;;;;;;7.60;5.08;;;;;;;19.43;46.73;99934.42;1736661;82;20926;-72
2022/10/09 11:25:52;;;;;;;9.73;5.10;;;;;;;19.38;46.93;99932.59;1736500;82;21146;-74
2022/10/09 11:28:23;;;;;;;11.57;6.12;;;;;;;19.37;47.11;99927.47;1705848;84;20943;-73
2022/10/09 11:30:54;;;;;;;9.75;5.85;;;;;;;19.36;47.27;99923.92;1762163;81;21903;-71
2022/10/09 11:33:37;;;;;;;7.97;5.12;;;;;;;19.36;46.86;99925.28;1766456;81;20944;-72
2022/10/09 11:36:26;;;;;;;8.05;6.97;;;;;;;19.34;47.01;99921.23;1762869;81;20904;-71